• Join FlightAware (Why Join?)
  • Login
  • US Flag 
07:53AM EDT


 

Airport Tracker/Info


-or-


 

Live Flight TrackerFlight Track Log ✈ DAL1981 ✈ 27-Jul-2013 ✈ KSMF - KMSP

Flight Track Log - Related Links

Times and Time Zones

All times are in EDT time to prevent confusion due to time zone crossing. See the DAL1981 flight status page for this flight to view local times or setup timezone preferences in your user account.

Time Position Orientation Groundspeed Altitude Reporting Facility
EDT Latitude Longitude Course Direction KTS MPH feet Rate Location/Type
03:54PM 38.6667 -121.5833 78° East 154 177 1,100  Level Northern Cal TRACON
03:55PM 38.6333 -121.5333 130° Southeast 215 247 1,900 1,440 Climbing Northern Cal TRACON
03:56PM 38.6167 -121.4500 104° East 269 310 4,000 2,100 Climbing Northern Cal TRACON
03:57PM 38.4993 -121.2383 80° East  Level FlightAware Approximate
03:57PM 38.6039 -121.3731 102° East 279 321 5,900  Level Oakland Center
03:58PM 38.5383 -121.0755 76° East  Level FlightAware Approximate
03:58PM 38.6164 -121.2758 81° East 283 326 8,100  Level Oakland Center
03:59PM 38.5681 -120.9090 78° East  Level FlightAware Approximate
03:59PM 38.6333 -121.1500 80° East 301 346 10,900  Level Northern Cal TRACON
04:00PM 38.6383 -121.0419 87° East 328 377 11,700 1,260 Climbing Oakland Center
04:01PM 38.6514 -120.9092 83° East 367 422 13,400 1,740 Climbing Oakland Center
04:02PM 38.6644 -120.7706 83° East 389 448 15,300 1,800 Climbing Oakland Center
04:03PM 38.6789 -120.6286 83° East 402 463 17,100 1,860 Climbing Oakland Center
04:04PM 38.7650 -120.4917 51° Northeast 419 482 19,200 1,620 Climbing Oakland Center
04:05PM 38.8458 -120.3819 47° Northeast 424 488 20,500 1,260 Climbing Oakland Center
04:06PM 38.9281 -120.2658 48° Northeast 437 503 21,800 1,200 Climbing Oakland Center
04:07PM 38.9883 -120.1231 61° Northeast 459 528 23,000 1,080 Climbing Oakland Center
04:08PM 39.0431 -119.9753 64° Northeast 468 539 24,100 1,020 Climbing Oakland Center
04:09PM 39.0947 -119.8186 67° East 475 547 25,100 960 Climbing Oakland Center
04:10PM 39.1322 -119.6517 74° East 483 556 26,100 960 Climbing Oakland Center
04:11PM 39.1683 -119.4814 75° East 493 567 27,100 960 Climbing Oakland Center
04:12PM 39.2233 -119.2794 71° East 499 574 28,100 840 Climbing Oakland Center
04:13PM 39.2819 -119.1133 65° Northeast 508 585 28,900 840 Climbing Oakland Center
04:14PM 39.3403 -118.9442 66° East 507 583 29,900 900 Climbing Oakland Center
04:15PM 39.3972 -118.7753 66° East 509 586 30,800 840 Climbing Oakland Center
04:16PM 39.4567 -118.6056 66° East 516 594 31,700 900 Climbing Oakland Center
04:17PM 39.5158 -118.4286 67° East 504 580 32,700 780 Climbing Oakland Center
04:18PM 39.5719 -118.2633 66° East 502 578 33,400 660 Climbing Oakland Center
04:19PM 39.6272 -118.0964 67° East 503 579 34,100 540 Climbing Oakland Center
04:20PM 39.6828 -117.9286 67° East 505 581 34,600 420 Climbing Oakland Center
04:21PM 39.7383 -117.7606 67° East 507 583 35,000 180 Climbing Oakland Center
04:22PM 39.7911 -117.5986 67° East 505 581 35,000  Level Oakland Center
04:23PM 39.8519 -117.4128 67° East 503 579 35,000  Level Oakland Center
04:24PM 39.8947 -117.2778 68° East 503 579 35,000  Level Salt Lake Center
04:25PM 39.9550 -117.0908 67° East 504 580 35,000  Level Salt Lake Center
04:26PM 39.9908 -116.9253 74° East 500 575 35,000  Level Salt Lake Center
04:27PM 40.0331 -116.7311 74° East 501 577 35,000  Level Salt Lake Center
04:28PM 40.0681 -116.5667 74° East 499 574 35,000  Level Salt Lake Center
04:29PM 40.1042 -116.3703 76° East 499 574 35,000  Level Salt Lake Center
04:32PM 40.1739 -116.0072 76° East 501 577 35,000  Level Salt Lake Center
04:33PM 40.1967 -115.8431 80° East 487 560 35,000 60 Level Salt Lake Center
04:34PM 40.2058 -115.6494 86° East 480 552 35,200 240 Climbing Salt Lake Center
04:35PM 40.2117 -115.4853 87° East 474 545 35,500 360 Climbing Salt Lake Center
04:36PM 40.2253 -115.2917 85° East 477 549 36,000 240 Climbing Salt Lake Center
04:37PM 40.2333 -115.1242 86° East 482 555 36,000  Level Salt Lake Center
04:39PM 40.2608 -114.7642 84° East 489 563 36,000  Level Salt Lake Center
04:40PM 40.3161 -114.6067 65° Northeast 497 572 36,000  Level Salt Lake Center
04:41PM 40.3897 -114.4117 64° Northeast 498 573 36,000  Level Salt Lake Center
04:42PM 40.4633 -114.2569 58° Northeast 500 575 36,000  Level Salt Lake Center
04:43PM 40.5358 -114.1008 59° Northeast 501 577 36,000  Level Salt Lake Center
04:44PM 40.5964 -113.9372 64° Northeast 500 575 36,000  Level Salt Lake Center
04:45PM 40.6569 -113.7728 64° Northeast 501 577 36,000  Level Salt Lake Center
04:46PM 40.7203 -113.6078 63° Northeast 504 580 36,000  Level Salt Lake Center
04:47PM 40.7950 -113.4117 63° Northeast 501 577 36,000  Level Salt Lake Center
04:48PM 40.8578 -113.2453 63° Northeast 504 580 36,000  Level Salt Lake Center
04:49PM 40.9114 -113.0756 67° East 504 580 36,000  Level Salt Lake Center
04:50PM 40.9642 -112.9031 68° East 506 582 36,000  Level Salt Lake Center
04:51PM 41.0211 -112.7308 66° East 510 587 36,000  Level Salt Lake Center
04:52PM 41.0769 -112.5569 67° East 513 590 36,000  Level Salt Lake Center
04:53PM 41.1369 -112.3450 69° East 511 588 36,000  Level Salt Lake Center
04:54PM 41.1878 -112.1675 69° East 513 590 36,000  Level Salt Lake Center
04:55PM 41.2378 -111.9881 70° East 512 589 36,000  Level Salt Lake Center
04:56PM 41.2875 -111.8081 70° East 511 588 36,000  Level Salt Lake Center
04:57PM 41.3372 -111.6289 70° East 511 588 36,000  Level Salt Lake Center
04:58PM 41.3853 -111.4508 70° East 509 586 36,000  Level Salt Lake Center
04:59PM 41.4331 -111.2728 70° East 509 586 36,000  Level Salt Lake Center
05:00PM 41.4803 -111.0967 70° East 506 582 36,000  Level Salt Lake Center
05:02PM 41.5375 -110.8853 70° East 513 590 36,000  Level Salt Lake Center
05:03PM 41.5819 -110.7156 71° East 507 583 36,000  Level Salt Lake Center
05:04PM 41.6342 -110.5158 71° East 510 587 36,000  Level Salt Lake Center
05:05PM 41.6797 -110.3442 70° East 511 588 36,000  Level Salt Lake Center
05:06PM 41.7242 -110.1717 71° East 511 588 36,000  Level Salt Lake Center
05:07PM 41.7736 -109.9725 72° East 506 582 36,000  Level Salt Lake Center
05:08PM 41.8131 -109.8003 73° East 505 581 36,000  Level Salt Lake Center
05:09PM 41.8156 -109.5889 89° East 506 582 36,000 240 Level Salt Lake Center
05:10PM 41.8086 -109.4083 93° East 505 581 36,500 480 Climbing Salt Lake Center
05:11PM 41.8022 -109.1978 92° East 504 580 37,000 240 Climbing Salt Lake Center
05:12PM 41.7975 -109.0189 92° East 500 575 37,000  Level Salt Lake Center
05:13PM 41.8022 -108.8397 88° East 500 575 37,000  Level Salt Lake Center
05:14PM 41.8128 -108.6308 86° East 502 578 37,000  Level Salt Lake Center
05:15PM 41.8214 -108.4522 86° East 501 577 37,000  Level Salt Lake Center
05:16PM 41.8344 -108.2464 85° East 496 571 37,000  Level Salt Lake Center
05:17PM 41.8594 -108.0722 79° East 497 572 37,000  Level Salt Lake Center
05:18PM 41.9128 -107.8767 70° East 503 579 37,100  Climbing Salt Lake Center
05:19PM 41.9603 -107.7100 69° East 500 575 37,000 -60 Descending Salt Lake Center
05:20PM 42.0186 -107.5161 68° East 501 577 37,000  Level Denver Center
05:21PM 42.0653 -107.3150 73° East 504 580 37,000  Level Denver Center
05:22PM 42.1042 -107.1414 73° East 506 582 37,000  Level Denver Center
05:23PM 42.1461 -106.9361 75° East 510 587 37,000  Level Denver Center
05:24PM 42.1892 -106.7617 72° East 513 590 37,000  Level Denver Center
05:25PM 42.2403 -106.5561 71° East 517 595 37,000  Level Denver Center
05:26PM 42.2819 -106.3892 71° East 516 594 37,000  Level Denver Center
05:27PM 42.3394 -106.1878 69° East 513 590 37,000  Level Denver Center
05:28PM 42.3875 -106.0200 69° East 502 578 37,000  Level Denver Center
05:30PM 42.4433 -105.8219 69° East 502 578 37,000  Level Denver Center
05:31PM 42.4922 -105.6550 68° East 499 574 37,000  Level Denver Center
05:32PM 42.5325 -105.4819 72° East 501 577 37,000  Level Denver Center
05:33PM 42.5808 -105.2806 72° East 503 579 37,000 -60 Level Denver Center
05:34PM 42.6219 -105.1083 72° East 500 575 36,900  Descending Denver Center
05:35PM 42.6711 -104.8989 72° East 515 593 37,000 60 Climbing Denver Center
05:36PM 42.7147 -104.7147 72° East 526 605 37,100  Climbing Denver Center
05:37PM 42.7572 -104.5286 73° East 526 605 37,000 -60 Descending Denver Center
05:38PM 42.8044 -104.3175 73° East 518 596 37,000  Level Denver Center
05:39PM 42.8381 -104.1703 73° East 510 587 37,000  Level Denver Center
05:40PM 42.8903 -103.9364 73° East 506 582 37,000  Level Denver Center
05:41PM 42.9289 -103.7611 73° East 505 581 37,000  Level Denver Center
05:42PM 42.9625 -103.6128 73° East 509 586 37,100  Climbing Denver Center
05:43PM 43.0136 -103.3775 73° East 507 583 37,100 -60 Level Denver Center
05:44PM 43.0506 -103.2014 74° East 505 581 37,000 -60 Descending Denver Center
05:45PM 43.0947 -102.9956 74° East 505 581 37,000  Level Denver Center
05:46PM 43.1331 -102.8186 73° East 507 583 37,000  Level Denver Center
05:47PM 43.1764 -102.6119 74° East 507 583 37,000  Level Denver Center
05:48PM 43.2125 -102.4350 74° East 504 580 37,000  Level Denver Center
05:49PM 43.2561 -102.2286 74° East 505 581 37,000  Level Denver Center
05:50PM 43.2972 -102.0239 75° East 500 575 37,000  Level Denver Center
05:52PM 43.3383 -101.8208 74° East 504 580 37,000  Level Denver Center
05:53PM 43.3828 -101.5994 74° East 504 580 37,000  Level Denver Center
05:54PM 43.4183 -101.4131 75° East 505 581 37,000  Level Denver Center
05:55PM 43.4550 -101.2283 75° East 502 578 37,000  Level Denver Center
05:55PM 43.4781 -101.1192 74° East 503 579 37,000  Level Minneapolis Center
05:56PM 43.5122 -100.9342 76° East 501 577 37,000  Level Minneapolis Center
05:57PM 43.5339 -100.8228 75° East 498 573 37,000  Level Denver Center
05:58PM 43.5681 -100.6397 75° East 495 570 37,000  Level Denver Center
05:58PM 43.5894 -100.5322 75° East 494 568 37,000  Level Minneapolis Center
05:59PM 43.6242 -100.3475 75° East 496 571 37,000  Level Minneapolis Center
06:00PM 43.6581 -100.1642 76° East 498 573 37,000  Level Minneapolis Center
06:01PM 43.6925 -99.9781 76° East 499 574 37,000  Level Minneapolis Center
06:02PM 43.7256 -99.7922 76° East 500 575 37,000  Level Minneapolis Center
06:03PM 43.7608 -99.6036 75° East 505 581 37,000  Level Minneapolis Center
06:04PM 43.8006 -99.3794 76° East 504 580 37,000  Level Minneapolis Center
06:05PM 43.8339 -99.1919 76° East 504 580 37,000  Level Minneapolis Center
06:07PM 43.8667 -99.0058 76° East 501 577 37,000  Level Minneapolis Center
06:08PM 43.8983 -98.8200 77° East 499 574 37,000  Level Minneapolis Center
06:09PM 43.9303 -98.6361 76° East 502 578 37,000  Level Minneapolis Center
06:10PM 43.9611 -98.4478 77° East 501 577 37,000  Level Minneapolis Center
06:11PM 43.9994 -98.2222 77° East 501 577 37,000  Level Minneapolis Center
06:12PM 44.0303 -98.0325 77° East 504 580 37,000  Level Minneapolis Center
06:13PM 44.0617 -97.8439 77° East 503 579 37,000  Level Minneapolis Center
06:14PM 44.0914 -97.6550 78° East 501 577 37,000  Level Minneapolis Center
06:15PM 44.1589 -97.5028 58° Northeast 468 539 37,000  Level Minneapolis Center
06:16PM 44.2656 -97.4264 27° Northeast 428 493 37,000  Level Minneapolis Center
06:17PM 44.3700 -97.3611 24° Northeast 414 476 37,000 -540 Level Minneapolis Center
06:18PM 44.4967 -97.2825 24° Northeast 414 476 35,900 -1,020 Descending Minneapolis Center
06:19PM 44.5994 -97.1978 30° Northeast 435 501 35,000 -480 Descending Minneapolis Center
06:20PM 44.6878 -97.0772 44° Northeast 442 509 35,000  Level Minneapolis Center
06:21PM 44.7744 -96.9547 45° Northeast 442 509 35,000  Level Minneapolis Center
06:22PM 44.8222 -96.7822 69° East 486 559 35,000  Level Minneapolis Center
06:23PM 44.7942 -96.5872 101° East 510 587 35,000 -300 Level Minneapolis Center
06:24PM 44.7519 -96.3933 107° East 516 594 34,400 -900 Descending Minneapolis Center
06:25PM 44.7017 -96.1597 107° East 518 596 33,200 -1,020 Descending Minneapolis Center
06:26PM 44.6586 -95.9656 107° East 518 596 32,300 -960 Descending Minneapolis Center
06:27PM 44.6156 -95.7719 107° East 516 594 31,300 -960 Descending Minneapolis Center
06:28PM 44.5731 -95.5864 108° East 503 579 30,400 -1,020 Descending Minneapolis Center
06:29PM 44.5319 -95.4069 108° East 488 562 29,300 -1,500 Descending Minneapolis Center
06:30PM 44.4903 -95.2347 109° East 470 541 27,300 -1,980 Descending Minneapolis Center
06:31PM 44.4794 -95.0742 95° East 422 486 25,300 -2,040 Descending Minneapolis Center
06:32PM 44.5169 -94.9286 70° East 401 461 23,200 -2,220 Descending Minneapolis Center
06:33PM 44.5550 -94.7597 72° East 385 443 20,800 -2,220 Descending Minneapolis Center
06:34PM 44.5858 -94.6258 72° East 369 425 18,700 -1,920 Descending Minneapolis Center
06:35PM 44.6133 -94.5081 72° East 358 412 16,900 -2,100 Descending Minneapolis Center
06:36PM 44.6483 -94.3517 72° East 349 402 14,400 -2,280 Descending Minneapolis Center
06:37PM 44.6781 -94.2250 72° East 342 394 12,300 -1,620 Descending Minneapolis Center
06:39PM 44.7056 -94.1019 73° East 331 381 11,100 -600 Descending Minneapolis Center
06:40PM 44.7336 -93.9783 72° East 332 382 11,100 -60 Level Minneapolis Center
06:41PM 44.7608 -93.8536 73° East 332 382 11,000 -360 Descending Minneapolis Center
06:42PM 44.7872 -93.7353 73° East 310 357 10,400 -1,260 Descending Minneapolis Center
06:43PM 44.8156 -93.6056 73° East 288 331 8,400 -1,200 Descending Minneapolis Center
06:44PM 44.8394 -93.4986 72° East 285 328 8,000 -240 Descending Minneapolis Center
06:45PM 44.8606 -93.4014 73° East 258 297 8,000  Level Minneapolis Center
06:46PM 44.8253 -93.3272 124° Southeast 271 312 8,000 -300 Level Minneapolis Center
06:47PM 44.7536 -93.3294 181° South 266 306 7,400 -1,020 Descending Minneapolis Center
06:48PM 44.6822 -93.2869 157° South 257 296 6,000 -1,500 Descending Minneapolis Center
06:49PM 44.6881 -93.2114 84° East 213 245 4,400 -1,260 Descending Minneapolis Center
06:50PM 44.7328 -93.2019 North 169 194 3,400 -1,020 Descending Minneapolis Center
06:51PM 44.7839 -93.2150 350° North 165 190 2,400 -900 Descending Minneapolis Center
06:52PM 44.8264 -93.2261 349° North 159 183 1,600 -780 Descending Minneapolis Center